Time;durP1;ratioP1;P1;durP2;ratioP2;P2;SDS_P1;SDS_P2;PMS_P1;PMS_P2;Temp;Humidity;BMP_temperature;BMP_pressure;BME280_temperature;BME280_humidity;BME280_pressure;Samples;Min_cycle;Max_cycle;Signal;HPM_P1;HPM_P2
2021/04/28 00:02:24;;;;;;;5.95;0.73;;;26.10;20.80;;;;;;5091945;28;20082;-62
2021/04/28 00:04:50;;;;;;;11.98;0.90;;;26.10;20.90;;;;;;5097571;28;20125;-63
2021/04/28 00:07:17;;;;;;;6.93;1.23;;;26.00;21.00;;;;;;5094626;28;20077;-62
2021/04/28 00:09:43;;;;;;;7.25;1.60;;;26.00;21.20;;;;;;5076993;28;20184;-62
2021/04/28 00:12:10;;;;;;;4.35;0.70;;;26.00;20.70;;;;;;5077746;28;20080;-61
2021/04/28 00:14:37;;;;;;;5.38;0.85;;;25.90;21.00;;;;;;5100394;28;20065;-62
2021/04/28 00:17:03;;;;;;;4.53;0.80;;;25.80;21.10;;;;;;5101774;28;20433;-60
2021/04/28 00:19:31;;;;;;;4.93;1.00;;;25.80;21.30;;;;;;5094972;28;20129;-61
2021/04/28 00:21:57;;;;;;;6.45;2.03;;;25.70;21.40;;;;;;5095460;28;20549;-62
2021/04/28 00:24:24;;;;;;;9.07;1.10;;;25.60;21.50;;;;;;5093660;28;20081;-61
2021/04/28 00:26:50;;;;;;;3.88;1.40;;;25.40;21.90;;;;;;5101289;28;20073;-62
2021/04/28 00:29:17;;;;;;;8.30;1.85;;;25.40;21.40;;;;;;5103070;28;20119;-61
2021/04/28 00:31:44;;;;;;;6.88;1.40;;;25.40;21.70;;;;;;5096485;28;20077;-61
2021/04/28 00:34:10;;;;;;;5.15;1.02;;;25.50;21.50;;;;;;5093479;28;20087;-62
2021/04/28 00:36:37;;;;;;;7.43;1.15;;;25.40;21.30;;;;;;5079697;28;20118;-62
2021/04/28 00:39:04;;;;;;;12.18;1.20;;;25.20;21.60;;;;;;5082388;28;20451;-62
2021/04/28 00:41:31;;;;;;;8.60;1.63;;;25.20;21.80;;;;;;5100977;28;20084;-61
2021/04/28 00:43:58;;;;;;;9.10;1.33;;;25.10;22.20;;;;;;5095998;28;20103;-62
2021/04/28 00:46:24;;;;;;;8.70;1.10;;;25.20;22.20;;;;;;5077312;28;20107;-61
2021/04/28 00:48:51;;;;;;;5.40;1.42;;;25.20;22.00;;;;;;5095186;28;20079;-63
2021/04/28 00:51:18;;;;;;;8.98;1.63;;;25.10;22.10;;;;;;5084631;28;20092;-58
2021/04/28 00:53:45;;;;;;;9.85;1.30;;;25.00;22.50;;;;;;5079479;28;20100;-58
2021/04/28 00:56:12;;;;;;;18.00;1.80;;;24.80;22.80;;;;;;5078107;28;20529;-58
2021/04/28 00:58:40;;;;;;;8.23;1.30;;;24.60;23.20;;;;;;5074851;28;20155;-59
2021/04/28 01:01:07;;;;;;;5.75;1.25;;;24.70;23.30;;;;;;5088804;28;20071;-61
2021/04/28 01:03:34;;;;;;;5.40;1.00;;;24.60;23.20;;;;;;5090836;28;20487;-63
2021/04/28 01:06:03;;;;;;;4.95;1.02;;;24.60;23.30;;;;;;5091226;28;20090;-64
2021/04/28 01:08:30;;;;;;;5.80;1.10;;;24.60;23.30;;;;;;5094918;28;20072;-61
2021/04/28 01:10:57;;;;;;;9.65;1.42;;;24.50;23.40;;;;;;5095974;28;20127;-61
2021/04/28 01:13:24;;;;;;;7.28;1.42;;;24.50;23.60;;;;;;5092882;28;20122;-61
2021/04/28 01:15:52;;;;;;;7.68;1.00;;;24.50;23.80;;;;;;5079793;28;20081;-63
2021/04/28 01:18:20;;;;;;;13.18;1.45;;;24.50;24.10;;;;;;5091367;28;20107;-61
2021/04/28 01:20:49;;;;;;;5.28;1.33;;;24.50;24.30;;;;;;5079120;28;20102;-63
2021/04/28 01:23:19;;;;;;;5.40;1.63;;;24.40;24.30;;;;;;5092062;28;20096;-63
2021/04/28 01:25:47;;;;;;;7.55;0.90;;;24.30;24.60;;;;;;5077990;28;20073;-63
2021/04/28 01:28:20;;;;;;;8.73;1.35;;;24.10;25.00;;;;;;5088073;28;20072;-63
2021/04/28 01:31:03;;;;;;;10.55;1.05;;;24.00;25.10;;;;;;5091127;28;20091;-62
2021/04/28 01:33:38;;;;;;;11.15;1.30;;;23.90;25.50;;;;;;5092422;28;20072;-59
2021/04/28 01:36:09;;;;;;;9.02;1.20;;;23.80;25.80;;;;;;5095282;28;20075;-61
2021/04/28 01:38:41;;;;;;;15.07;1.38;;;23.60;25.90;;;;;;5093391;28;20136;-60
2021/04/28 01:41:08;;;;;;;7.55;1.15;;;23.50;26.30;;;;;;5095198;28;20073;-62
2021/04/28 01:43:35;;;;;;;10.82;1.25;;;23.50;26.30;;;;;;5093761;28;20077;-60
2021/04/28 01:46:03;;;;;;;14.75;1.00;;;23.40;26.30;;;;;;5088670;28;20081;-62
2021/04/28 01:48:30;;;;;;;5.32;1.58;;;23.40;26.50;;;;;;5076457;28;20077;-60
2021/04/28 01:50:58;;;;;;;15.52;1.42;;;23.30;26.80;;;;;;5086811;28;20131;-62
2021/04/28 01:53:26;;;;;;;11.32;1.08;;;23.20;27.30;;;;;;5072413;28;20150;-62
2021/04/28 01:55:55;;;;;;;12.65;1.27;;;23.10;27.80;;;;;;5089245;28;20076;-64
2021/04/28 01:58:24;;;;;;;8.32;1.23;;;23.00;28.00;;;;;;5089169;28;20088;-61
2021/04/28 02:00:51;;;;;;;21.40;6.35;;;22.90;28.40;;;;;;5092023;28;20077;-60
2021/04/28 02:03:21;;;;;;;10.70;2.35;;;22.90;28.80;;;;;;5089952;28;20106;-62
2021/04/28 02:05:48;;;;;;;8.43;1.75;;;22.80;28.90;;;;;;5089040;28;20084;-61
2021/04/28 02:08:14;;;;;;;6.57;1.15;;;22.70;29.10;;;;;;5092771;28;20079;-61
2021/04/28 02:10:41;;;;;;;8.75;1.33;;;22.60;29.20;;;;;;5090796;28;20145;-59
2021/04/28 02:13:10;;;;;;;8.10;1.80;;;22.60;29.80;;;;;;5091000;28;20517;-60
2021/04/28 02:15:37;;;;;;;15.43;1.60;;;22.50;30.30;;;;;;5091516;28;20077;-60
2021/04/28 02:18:06;;;;;;;16.13;1.27;;;22.50;30.40;;;;;;5089305;28;20069;-58
2021/04/28 02:20:35;;;;;;;14.80;1.50;;;22.50;30.60;;;;;;5087692;28;20073;-62
2021/04/28 02:23:05;;;;;;;8.88;1.02;;;22.40;30.40;;;;;;5093282;28;20069;-63
2021/04/28 02:25:32;;;;;;;15.82;1.40;;;22.30;30.90;;;;;;5090360;28;20072;-63
2021/04/28 02:27:59;;;;;;;10.15;1.35;;;22.20;31.60;;;;;;5069993;28;20125;-60
2021/04/28 02:30:29;;;;;;;11.27;1.80;;;22.10;32.20;;;;;;5089825;28;20092;-60
2021/04/28 02:32:56;;;;;;;10.93;1.52;;;22.00;32.30;;;;;;5058889;28;20105;-61
2021/04/28 02:35:25;;;;;;;8.55;1.58;;;22.00;32.60;;;;;;5090259;28;20075;-62
2021/04/28 02:38:18;;;;;;;11.48;1.13;;;21.90;32.90;;;;;;5092741;28;20084;-63
2021/04/28 02:40:45;;;;;;;7.82;1.50;;;21.90;33.10;;;;;;5089286;28;20111;-61
2021/04/28 02:43:13;;;;;;;10.43;1.50;;;21.70;33.10;;;;;;5088668;28;20150;-62
2021/04/28 02:45:43;;;;;;;8.43;1.88;;;21.70;33.20;;;;;;5088525;28;20081;-62
2021/04/28 02:48:09;;;;;;;10.98;1.58;;;21.70;33.40;;;;;;5090428;28;20111;-62
2021/04/28 02:50:36;;;;;;;6.93;1.30;;;21.70;33.10;;;;;;5089609;28;20107;-62
2021/04/28 02:53:07;;;;;;;14.70;1.75;;;21.60;33.00;;;;;;5078195;28;20068;-63
2021/04/28 02:55:35;;;;;;;3.63;1.58;;;21.50;33.10;;;;;;5092672;28;20081;-62
2021/04/28 02:58:03;;;;;;;10.50;1.98;;;21.50;33.10;;;;;;5072875;28;20587;-61
2021/04/28 03:00:30;;;;;;;14.93;2.20;;;21.40;33.10;;;;;;5087681;28;20072;-61
2021/04/28 03:02:57;;;;;;;14.48;2.60;;;21.40;33.20;;;;;;5087888;28;20602;-60
2021/04/28 03:05:26;;;;;;;7.00;1.60;;;21.50;33.30;;;;;;5089959;28;20080;-62
2021/04/28 03:07:56;;;;;;;15.38;2.50;;;21.40;33.10;;;;;;5073695;28;20151;-58
2021/04/28 03:10:23;;;;;;;8.00;2.15;;;21.40;33.20;;;;;;5093358;28;20101;-60
2021/04/28 03:12:49;;;;;;;7.18;1.88;;;21.30;33.30;;;;;;5091250;28;20122;-62
2021/04/28 03:15:20;;;;;;;9.80;2.95;;;21.30;33.20;;;;;;5089936;28;20076;-59
2021/04/28 03:17:47;;;;;;;10.95;3.53;;;21.30;33.30;;;;;;5090341;28;20100;-60
2021/04/28 03:20:15;;;;;;;11.10;3.28;;;21.30;33.30;;;;;;5088785;28;20074;-60
2021/04/28 03:22:42;;;;;;;12.50;4.07;;;21.20;33.30;;;;;;5072047;28;20140;-60
2021/04/28 03:25:11;;;;;;;31.40;10.82;;;21.20;33.60;;;;;;5087660;28;20072;-61
2021/04/28 03:27:37;;;;;;;38.40;9.13;;;21.20;33.70;;;;;;5087125;28;20121;-61
2021/04/28 03:30:06;;;;;;;67.32;14.85;;;21.10;33.80;;;;;;5090808;28;20100;-63
2021/04/28 03:32:33;;;;;;;31.00;8.82;;;21.10;33.80;;;;;;5077006;28;20072;-62
2021/04/28 03:35:00;;;;;;;11.07;2.40;;;21.10;34.00;;;;;;5088691;28;20069;-59
2021/04/28 03:37:26;;;;;;;8.45;1.65;;;21.10;33.90;;;;;;5074334;28;20083;-63
2021/04/28 03:39:53;;;;;;;5.55;2.00;;;21.10;33.90;;;;;;5096580;28;20129;-65
2021/04/28 03:42:22;;;;;;;9.38;2.42;;;21.00;33.90;;;;;;5098872;28;20081;-62
2021/04/28 03:44:51;;;;;;;14.00;3.78;;;21.10;34.20;;;;;;5100488;28;20077;-66
2021/04/28 03:47:19;;;;;;;15.88;5.82;;;21.00;34.20;;;;;;5085706;28;20144;-66
2021/04/28 03:49:46;;;;;;;24.90;8.38;;;20.90;34.30;;;;;;5095939;28;20080;-61
2021/04/28 03:52:13;;;;;;;31.60;10.65;;;21.00;34.50;;;;;;5094173;28;20068;-60
2021/04/28 03:54:39;;;;;;;48.47;13.52;;;20.90;34.60;;;;;;5095539;28;20095;-62
2021/04/28 03:57:06;;;;;;;98.93;22.63;;;20.80;34.80;;;;;;5089744;28;20520;-61
2021/04/28 03:59:34;;;;;;;282.52;59.20;;;20.80;35.00;;;;;;5074813;28;20096;-61
2021/04/28 04:02:01;;;;;;;62.08;18.17;;;20.70;35.20;;;;;;5074215;28;20138;-61
2021/04/28 04:04:28;;;;;;;20.38;5.88;;;20.70;35.40;;;;;;5095997;28;20081;-60
2021/04/28 04:06:54;;;;;;;11.30;2.55;;;20.80;35.50;;;;;;5092232;28;20096;-64
2021/04/28 04:09:21;;;;;;;5.55;2.35;;;20.70;35.50;;;;;;5100583;28;20068;-64
2021/04/28 04:11:49;;;;;;;10.30;4.10;;;20.70;35.60;;;;;;5094715;28;20159;-62
2021/04/28 04:14:16;;;;;;;15.57;5.25;;;20.70;35.60;;;;;;5098061;28;20073;-62
2021/04/28 04:16:42;;;;;;;12.30;4.70;;;20.60;35.70;;;;;;5078238;28;20100;-62
2021/04/28 04:19:09;;;;;;;49.63;17.65;;;20.60;35.70;;;;;;5074091;28;20073;-63
2021/04/28 04:21:35;;;;;;;26.05;6.40;;;20.50;35.80;;;;;;5094157;28;20076;-62
2021/04/28 04:24:02;;;;;;;51.00;13.02;;;20.50;35.70;;;;;;5093459;28;20075;-64
2021/04/28 04:26:30;;;;;;;176.10;38.33;;;20.50;35.70;;;;;;5090484;28;20151;-60
2021/04/28 04:28:57;;;;;;;72.75;15.18;;;20.50;35.90;;;;;;5096602;28;20080;-63
2021/04/28 04:31:24;;;;;;;164.27;31.40;;;20.50;35.90;;;;;;5092468;28;20102;-63
2021/04/28 04:33:50;;;;;;;18.30;7.45;;;20.40;35.80;;;;;;5093497;28;20079;-62
2021/04/28 04:36:17;;;;;;;7.88;2.40;;;20.40;35.90;;;;;;5095712;28;20076;-61
2021/04/28 04:38:44;;;;;;;5.95;2.00;;;20.40;35.90;;;;;;5094953;28;20087;-60
2021/04/28 04:41:10;;;;;;;6.97;1.45;;;20.30;36.00;;;;;;5092768;28;20176;-61
2021/04/28 04:43:37;;;;;;;6.82;1.48;;;20.20;36.10;;;;;;5094987;28;21503;-60
2021/04/28 04:46:03;;;;;;;13.13;1.95;;;20.20;36.10;;;;;;5091902;28;20079;-63
2021/04/28 04:48:30;;;;;;;8.38;1.55;;;20.20;36.10;;;;;;5076255;28;20076;-63
2021/04/28 04:50:56;;;;;;;4.38;1.60;;;20.10;36.10;;;;;;5084743;28;20141;-63
2021/04/28 04:53:23;;;;;;;9.27;1.60;;;20.10;36.00;;;;;;5093665;28;20424;-61
2021/04/28 04:55:49;;;;;;;5.97;1.33;;;20.10;36.00;;;;;;5076357;28;20073;-62
2021/04/28 04:58:16;;;;;;;10.23;1.75;;;20.10;35.90;;;;;;5096264;28;20151;-60
2021/04/28 05:00:43;;;;;;;10.95;1.50;;;20.10;35.90;;;;;;5073063;28;20073;-62
2021/04/28 05:03:10;;;;;;;7.95;1.55;;;20.10;35.80;;;;;;5092988;28;20072;-63
2021/04/28 05:05:37;;;;;;;12.05;1.60;;;20.10;35.90;;;;;;5093930;28;20128;-62
2021/04/28 05:08:04;;;;;;;8.05;1.52;;;20.00;35.90;;;;;;5094390;28;20081;-60
2021/04/28 05:10:30;;;;;;;9.93;1.50;;;20.10;35.90;;;;;;5096767;28;20096;-62
2021/04/28 05:12:57;;;;;;;9.65;1.50;;;20.10;35.80;;;;;;5094308;28;20513;-60
2021/04/28 05:15:23;;;;;;;7.95;1.60;;;20.10;35.80;;;;;;5091639;28;20072;-61
2021/04/28 05:17:50;;;;;;;10.43;2.47;;;20.10;35.80;;;;;;5074405;28;20509;-62
2021/04/28 05:20:17;;;;;;;8.65;2.45;;;20.10;35.70;;;;;;5092064;28;20073;-63
2021/04/28 05:22:43;;;;;;;12.40;2.42;;;20.10;35.60;;;;;;5096503;28;20524;-61
2021/04/28 05:25:12;;;;;;;6.93;1.42;;;20.00;35.60;;;;;;5075155;28;20168;-59
2021/04/28 05:27:38;;;;;;;7.93;1.60;;;20.00;35.70;;;;;;5091449;28;20067;-62
2021/04/28 05:30:07;;;;;;;10.10;1.50;;;20.00;35.60;;;;;;5076272;28;20092;-59
2021/04/28 05:32:34;;;;;;;7.85;1.40;;;20.00;35.60;;;;;;5091986;28;20065;-62
2021/04/28 05:35:01;;;;;;;9.70;1.70;;;20.00;35.50;;;;;;5089439;28;20137;-62
2021/04/28 05:37:27;;;;;;;8.55;1.35;;;20.00;35.60;;;;;;5091776;28;20107;-60
2021/04/28 05:39:54;;;;;;;8.13;1.55;;;19.90;35.60;;;;;;5095466;28;20096;-61
2021/04/28 05:42:20;;;;;;;11.57;1.67;;;19.90;35.50;;;;;;5093680;28;20151;-61
2021/04/28 05:44:47;;;;;;;4.68;1.40;;;19.90;35.60;;;;;;5095976;28;20080;-60
2021/04/28 05:47:14;;;;;;;6.63;2.00;;;20.00;35.40;;;;;;5100087;28;20120;-58
2021/04/28 05:49:41;;;;;;;10.50;2.30;;;19.90;35.40;;;;;;5091623;28;20587;-57
2021/04/28 05:52:13;;;;;;;9.05;2.60;;;20.00;35.50;;;;;;5077623;28;20135;-60
2021/04/28 05:54:39;;;;;;;8.88;1.80;;;20.00;35.50;;;;;;5059146;28;20105;-61
2021/04/28 05:57:06;;;;;;;8.85;2.15;;;19.90;35.40;;;;;;5096027;28;20159;-63
2021/04/28 05:59:40;;;;;;;9.48;2.03;;;20.00;35.50;;;;;;5076827;28;20081;-60
2021/04/28 06:02:07;;;;;;;10.95;1.90;;;20.00;35.50;;;;;;5091093;28;20144;-62
2021/04/28 06:04:37;;;;;;;9.18;2.08;;;19.90;35.60;;;;;;5077090;28;20121;-60
2021/04/28 06:07:04;;;;;;;8.95;1.70;;;19.90;35.70;;;;;;5091327;28;20077;-60
2021/04/28 06:09:31;;;;;;;7.10;1.60;;;19.90;35.70;;;;;;5088442;28;20077;-61
2021/04/28 06:11:58;;;;;;;14.30;2.00;;;19.90;35.70;;;;;;5089174;28;20081;-61
2021/04/28 06:14:25;;;;;;;5.40;1.70;;;19.90;35.70;;;;;;5072170;28;20080;-60
2021/04/28 06:16:51;;;;;;;13.02;1.40;;;19.90;35.80;;;;;;5091049;28;20474;-61
2021/04/28 06:19:18;;;;;;;11.55;1.83;;;19.90;35.70;;;;;;5093283;28;20156;-61
2021/04/28 06:21:45;;;;;;;6.82;1.60;;;19.90;35.80;;;;;;5087787;28;20076;-62
2021/04/28 06:24:12;;;;;;;9.45;1.80;;;19.80;35.70;;;;;;5073797;28;20083;-62
2021/04/28 06:26:41;;;;;;;8.45;1.70;;;19.80;35.80;;;;;;5095952;28;20559;-61
2021/04/28 06:29:07;;;;;;;6.68;1.40;;;19.90;35.80;;;;;;5096054;28;20072;-62
2021/04/28 06:31:34;;;;;;;5.65;1.30;;;19.80;35.80;;;;;;5096776;28;20193;-61
2021/04/28 06:34:01;;;;;;;5.65;1.42;;;19.80;35.80;;;;;;5076194;28;20211;-62
2021/04/28 06:36:27;;;;;;;5.70;1.58;;;19.90;36.00;;;;;;5092601;28;20076;-60
2021/04/28 06:38:53;;;;;;;;;;;19.90;35.90;;;;;;5097236;28;20072;-60
2021/04/28 06:41:20;;;;;;;7.00;1.40;;;19.90;35.80;;;;;;5091713;28;19957;-61
2021/04/28 06:43:46;;;;;;;7.82;1.38;;;19.90;36.40;;;;;;5093955;28;20077;-62
2021/04/28 06:46:13;;;;;;;7.15;1.40;;;19.90;35.80;;;;;;5093317;28;20108;-62
2021/04/28 06:48:40;;;;;;;7.75;1.80;;;19.80;35.80;;;;;;5090404;28;20073;-61
2021/04/28 06:51:06;;;;;;;9.05;1.52;;;19.90;35.80;;;;;;5091220;28;20577;-61
2021/04/28 06:53:33;;;;;;;9.75;1.15;;;19.80;35.90;;;;;;5094759;28;20072;-62
2021/04/28 06:55:59;;;;;;;10.05;1.20;;;19.80;35.90;;;;;;5093341;28;20574;-62
2021/04/28 06:58:28;;;;;;;6.80;1.65;;;19.80;36.00;;;;;;5091350;28;20121;-61
2021/04/28 07:00:55;;;;;;;6.18;1.45;;;19.70;36.10;;;;;;5089531;28;20130;-59
2021/04/28 07:03:21;;;;;;;;;;;19.70;36.20;;;;;;5091460;28;20069;-61
2021/04/28 07:05:47;;;;;;;4.47;1.30;;;19.70;36.10;;;;;;5090768;28;19957;-61
2021/04/28 07:08:14;;;;;;;8.30;1.65;;;19.70;36.10;;;;;;5090474;28;20084;-58
2021/04/28 07:10:40;;;;;;;4.55;1.33;;;19.70;36.00;;;;;;5094494;28;20100;-58
2021/04/28 07:13:07;;;;;;;12.10;1.60;;;19.70;36.00;;;;;;5094141;28;20076;-59
2021/04/28 07:15:34;;;;;;;9.05;1.45;;;19.70;36.10;;;;;;5098744;28;20133;-58
2021/04/28 07:18:00;;;;;;;3.63;0.98;;;19.70;36.00;;;;;;5098413;28;20192;-59
2021/04/28 07:20:27;;;;;;;8.48;1.90;;;19.70;35.90;;;;;;5099760;28;20076;-60
2021/04/28 07:22:54;;;;;;;8.60;1.83;;;19.70;35.90;;;;;;5079788;28;20108;-57
2021/04/28 07:25:20;;;;;;;8.70;1.50;;;19.70;35.90;;;;;;5093382;28;20262;-60
2021/04/28 07:27:47;;;;;;;6.63;1.67;;;19.70;35.90;;;;;;5104786;28;20068;-60
2021/04/28 07:30:15;;;;;;;6.53;1.50;;;19.70;36.00;;;;;;5100481;28;20107;-62
2021/04/28 07:32:42;;;;;;;4.50;1.23;;;19.70;35.80;;;;;;5091920;28;20064;-63
2021/04/28 07:35:11;;;;;;;9.25;1.40;;;19.60;36.00;;;;;;5091528;28;20071;-62
2021/04/28 07:37:38;;;;;;;4.70;1.00;;;19.60;36.00;;;;;;5074778;28;20068;-61
2021/04/28 07:40:05;;;;;;;;;;;19.60;36.20;;;;;;5098387;28;20080;-61
2021/04/28 07:42:32;;;;;;;4.53;1.15;;;19.60;36.30;;;;;;5097795;28;19965;-56
2021/04/28 07:44:58;;;;;;;8.15;0.98;;;19.50;36.30;;;;;;5100414;28;20084;-61
2021/04/28 07:47:25;;;;;;;7.40;1.45;;;19.40;36.40;;;;;;5099658;28;20108;-62
2021/04/28 07:49:51;;;;;;;4.95;1.23;;;19.40;36.50;;;;;;5092201;28;21567;-64
2021/04/28 07:52:18;;;;;;;5.28;0.90;;;19.40;36.60;;;;;;5094473;28;20073;-61
2021/04/28 07:54:48;;;;;;;9.30;1.40;;;19.40;36.80;;;;;;5059264;28;20125;-63
2021/04/28 07:57:15;;;;;;;3.70;1.13;;;19.30;36.80;;;;;;5093288;28;20163;-60
2021/04/28 07:59:44;;;;;;;3.33;0.90;;;19.30;37.00;;;;;;5076018;28;20205;-61
2021/04/28 08:02:14;;;;;;;6.82;1.30;;;19.30;37.00;;;;;;5079532;28;20081;-60
2021/04/28 08:04:41;;;;;;;7.57;1.20;;;19.30;37.00;;;;;;5080004;28;20084;-62
2021/04/28 08:07:08;;;;;;;3.95;1.10;;;19.30;37.10;;;;;;5093384;28;20091;-62
2021/04/28 08:09:35;;;;;;;8.50;1.38;;;19.30;37.20;;;;;;5094770;28;20115;-61
2021/04/28 08:12:05;;;;;;;8.00;0.95;;;19.30;37.20;;;;;;5100303;28;20545;-61
2021/04/28 08:14:32;;;;;;;5.50;1.13;;;19.30;37.20;;;;;;5098442;28;20095;-61
2021/04/28 08:16:59;;;;;;;7.85;0.93;;;19.20;37.40;;;;;;5098669;28;20064;-62
2021/04/28 08:19:26;;;;;;;4.38;1.10;;;19.20;37.60;;;;;;5093494;28;20083;-62
2021/04/28 08:21:56;;;;;;;5.47;0.98;;;19.20;37.70;;;;;;5090574;28;20623;-60
2021/04/28 08:24:23;;;;;;;3.80;0.70;;;19.00;37.90;;;;;;5073707;28;20069;-61
2021/04/28 08:26:50;;;;;;;5.72;1.30;;;19.00;38.10;;;;;;5076876;28;20588;-61
2021/04/28 08:29:17;;;;;;;5.10;1.00;;;19.00;38.20;;;;;;5092746;28;20122;-62
2021/04/28 08:31:43;;;;;;;9.90;1.02;;;18.90;38.20;;;;;;5092015;28;20093;-61
2021/04/28 08:34:09;;;;;;;;;;;18.90;38.40;;;;;;5096184;28;20389;-62
2021/04/28 08:36:36;;;;;;;5.18;1.13;;;18.90;38.40;;;;;;5093430;28;20002;-61
2021/04/28 08:39:08;;;;;;;2.92;0.80;;;18.70;38.50;;;;;;5094000;28;20083;-60
2021/04/28 08:41:36;;;;;;;4.88;1.27;;;18.70;38.70;;;;;;5092855;28;20122;-60
2021/04/28 08:44:05;;;;;;;3.22;1.02;;;18.70;38.60;;;;;;5093565;28;20413;-61
2021/04/28 08:46:33;;;;;;;11.48;1.08;;;18.70;38.70;;;;;;5092067;28;20191;-62
2021/04/28 08:48:59;;;;;;;5.07;1.00;;;18.70;38.70;;;;;;5092866;28;20076;-62
2021/04/28 08:51:26;;;;;;;;;;;18.60;38.80;;;;;;5093746;28;20487;-62
2021/04/28 08:53:52;;;;;;;6.75;1.20;;;18.60;38.90;;;;;;5092204;28;19961;-62
2021/04/28 08:56:19;;;;;;;6.60;1.27;;;18.60;39.10;;;;;;5092094;28;20073;-62
2021/04/28 08:58:47;;;;;;;5.00;1.08;;;18.50;39.30;;;;;;5093811;28;20076;-62
2021/04/28 09:01:32;;;;;;;8.00;1.38;;;18.50;39.50;;;;;;5091742;28;20153;-62
2021/04/28 09:04:00;;;;;;;10.00;1.20;;;18.50;39.80;;;;;;5091157;28;20090;-62
2021/04/28 09:06:36;;;;;;;9.10;1.23;;;18.50;40.10;;;;;;5075455;28;20069;-62
2021/04/28 09:09:21;;;;;;;5.95;1.20;;;18.50;40.30;;;;;;5094012;28;20137;-62
2021/04/28 09:11:53;;;;;;;9.00;1.13;;;18.40;40.30;;;;;;5090118;28;20097;-60
2021/04/28 09:14:21;;;;;;;5.53;1.13;;;18.30;40.50;;;;;;5090731;28;20076;-61
2021/04/28 09:17:06;;;;;;;3.92;1.17;;;18.30;40.50;;;;;;5088349;28;20525;-63
2021/04/28 09:19:38;;;;;;;7.97;1.65;;;18.30;40.50;;;;;;5075213;28;20175;-63
2021/04/28 09:22:10;;;;;;;7.22;1.00;;;18.20;41.00;;;;;;5090576;28;20061;-61
2021/04/28 09:24:56;;;;;;;4.88;1.20;;;18.20;40.60;;;;;;5091899;28;20069;-60
2021/04/28 09:27:41;;;;;;;5.88;1.00;;;18.20;40.50;;;;;;5088271;28;20077;-60
2021/04/28 09:30:21;;;;;;;6.05;0.98;;;18.20;40.40;;;;;;5090994;28;20099;-62
2021/04/28 09:32:48;;;;;;;5.85;0.98;;;18.20;40.20;;;;;;5075593;28;20095;-62
2021/04/28 09:35:16;;;;;;;6.57;1.63;;;18.20;40.20;;;;;;5094970;28;20087;-61
2021/04/28 09:38:02;;;;;;;5.32;1.00;;;18.20;40.00;;;;;;5089030;28;20563;-60
2021/04/28 09:40:44;;;;;;;4.10;0.80;;;18.20;40.00;;;;;;5092119;28;20079;-62
2021/04/28 09:43:11;;;;;;;5.43;1.10;;;18.10;40.00;;;;;;5092015;28;20072;-61
2021/04/28 09:45:49;;;;;;;3.63;1.10;;;18.10;40.20;;;;;;5075321;28;20096;-59
2021/04/28 09:48:20;;;;;;;5.85;1.20;;;18.10;39.90;;;;;;5091592;28;20449;-62
2021/04/28 09:50:48;;;;;;;3.08;0.80;;;18.10;39.90;;;;;;5089294;28;20089;-62
2021/04/28 09:53:23;;;;;;;3.80;1.48;;;18.10;39.90;;;;;;5089563;28;20072;-62
2021/04/28 09:55:50;;;;;;;8.35;1.10;;;18.10;40.00;;;;;;5094421;28;20535;-62
2021/04/28 09:58:16;;;;;;;3.78;1.10;;;18.10;39.90;;;;;;5086788;28;20425;-60
2021/04/28 10:00:57;;;;;;;;;;;18.10;40.00;;;;;;5093352;28;20080;-61
2021/04/28 10:03:41;;;;;;;5.05;1.13;;;18.10;40.00;;;;;;5093045;28;19956;-61
2021/04/28 10:06:08;;;;;;;4.82;1.10;;;18.00;40.10;;;;;;5091963;28;20065;-60
2021/04/28 10:08:34;;;;;;;;;;;18.10;40.00;;;;;;5092835;28;20076;-61
2021/04/28 10:11:00;;;;;;;6.18;1.55;;;18.10;39.90;;;;;;5072535;28;20030;-60
2021/04/28 10:13:27;;;;;;;;;;;18.10;39.90;;;;;;5093580;28;20080;-60
2021/04/28 10:15:53;;;;;;;4.18;1.08;;;18.00;39.90;;;;;;5094161;28;20507;-61
2021/04/28 10:18:23;;;;;;;8.43;0.77;;;18.00;39.90;;;;;;5092987;28;20164;-63
2021/04/28 10:20:50;;;;;;;6.95;1.10;;;18.10;39.90;;;;;;5070337;28;20505;-60
2021/04/28 10:23:18;;;;;;;5.00;0.80;;;18.00;40.00;;;;;;5091875;28;20087;-60
2021/04/28 10:25:49;;;;;;;8.30;1.10;;;18.00;40.40;;;;;;5072972;28;20548;-62
2021/04/28 10:28:16;;;;;;;3.95;1.10;;;18.00;40.80;;;;;;5090986;28;20117;-61
2021/04/28 10:30:50;;;;;;;2.85;0.70;;;17.90;41.70;;;;;;5089425;28;20093;-61
2021/04/28 10:33:20;;;;;;;5.07;1.45;;;17.90;41.50;;;;;;5094447;28;20076;-62
2021/04/28 10:35:48;;;;;;;6.85;1.40;;;17.80;41.60;;;;;;5090730;28;20107;-60
2021/04/28 10:38:24;;;;;;;8.90;1.10;;;17.80;41.70;;;;;;5090957;28;21471;-61
2021/04/28 10:40:51;;;;;;;6.65;1.08;;;17.70;41.90;;;;;;5094763;28;20095;-61
2021/04/28 10:43:20;;;;;;;4.10;1.15;;;17.70;42.00;;;;;;5091979;28;20107;-62
2021/04/28 10:45:47;;;;;;;5.90;1.17;;;17.70;42.00;;;;;;5075087;28;20068;-62
2021/04/28 10:48:15;;;;;;;8.35;1.50;;;17.70;42.00;;;;;;5094082;28;20113;-61
2021/04/28 10:50:49;;;;;;;6.80;1.00;;;17.70;42.20;;;;;;5095836;28;20124;-59
2021/04/28 10:53:20;;;;;;;3.97;0.98;;;17.60;42.20;;;;;;5094592;28;20156;-62
2021/04/28 10:55:54;;;;;;;6.55;1.20;;;17.60;42.30;;;;;;5097055;28;20129;-61
2021/04/28 10:58:30;;;;;;;4.95;0.80;;;17.60;42.30;;;;;;5093029;28;20076;-61
2021/04/28 11:01:04;;;;;;;5.32;1.00;;;17.60;42.30;;;;;;5095505;28;20090;-60
2021/04/28 11:03:46;;;;;;;5.15;1.20;;;17.50;42.50;;;;;;5092269;28;20073;-62
2021/04/28 11:06:24;;;;;;;4.75;0.90;;;17.60;42.50;;;;;;5095246;28;20079;-62
2021/04/28 11:08:57;;;;;;;8.65;1.40;;;17.50;42.50;;;;;;5098135;28;20580;-62
2021/04/28 11:11:34;;;;;;;4.95;1.08;;;17.50;42.70;;;;;;5095733;28;20146;-62
2021/04/28 11:14:19;;;;;;;5.80;1.20;;;17.50;43.40;;;;;;5094404;28;20065;-62
2021/04/28 11:16:52;;;;;;;11.15;1.38;;;17.40;43.10;;;;;;5095286;28;20083;-61
2021/04/28 11:19:22;;;;;;;6.72;1.33;;;17.40;43.10;;;;;;5093383;28;20537;-60
2021/04/28 11:22:07;;;;;;;9.27;1.40;;;17.40;43.20;;;;;;5102212;28;20466;-61
2021/04/28 11:25:01;;;;;;;6.88;1.50;;;17.40;43.30;;;;;;5095176;28;20073;-61
2021/04/28 11:27:55;;;;;;;2.65;1.15;;;17.30;43.10;;;;;;5092338;28;20076;-62
2021/04/28 11:30:29;;;;;;;6.07;1.80;;;17.30;43.00;;;;;;5092933;28;20207;-62
2021/04/28 11:33:17;;;;;;;6.47;1.08;;;17.30;42.80;;;;;;5091149;28;20689;-62
2021/04/28 11:35:55;;;;;;;4.63;1.42;;;17.30;42.80;;;;;;5094028;28;20159;-60
2021/04/28 11:38:30;;;;;;;9.15;1.45;;;17.30;42.90;;;;;;5092127;28;20088;-62
2021/04/28 11:41:04;;;;;;;5.68;1.02;;;17.30;42.90;;;;;;5093102;28;20121;-62
2021/04/28 11:43:34;;;;;;;5.65;1.45;;;17.20;42.90;;;;;;5098750;28;21149;-62
2021/04/28 11:46:07;;;;;;;9.95;1.15;;;17.10;42.90;;;;;;5090423;28;20076;-62
2021/04/28 11:48:35;;;;;;;15.70;1.30;;;17.10;43.00;;;;;;5092954;28;20476;-63
2021/04/28 11:51:06;;;;;;;9.40;1.42;;;17.10;43.20;;;;;;5076107;28;20115;-59
2021/04/28 11:53:32;;;;;;;4.72;1.13;;;17.00;43.30;;;;;;5093398;28;20488;-62
2021/04/28 11:55:59;;;;;;;;;;;17.00;43.30;;;;;;5094733;28;20077;-61
2021/04/28 11:58:29;;;;;;;8.15;0.95;;;17.00;43.40;;;;;;5095111;28;20372;-61
2021/04/28 12:01:03;;;;;;;7.53;1.00;;;16.90;43.20;;;;;;5092811;28;20088;-59
2021/04/28 12:03:30;;;;;;;7.97;1.10;;;16.90;43.20;;;;;;5092974;28;20529;-61
2021/04/28 12:05:56;;;;;;;5.63;1.27;;;16.90;43.20;;;;;;5093156;28;20072;-63
2021/04/28 12:08:22;;;;;;;;;;;16.80;43.30;;;;;;5090531;28;20126;-63
2021/04/28 12:10:55;;;;;;;9.88;1.00;;;16.80;43.30;;;;;;5090864;28;19977;-62
2021/04/28 12:13:22;;;;;;;9.23;1.17;;;16.80;43.50;;;;;;5092401;28;20076;-62
2021/04/28 12:15:55;;;;;;;4.85;0.98;;;16.70;43.40;;;;;;5092923;28;20077;-62
2021/04/28 12:18:39;;;;;;;5.60;0.90;;;16.80;43.30;;;;;;5094889;28;20529;-62
2021/04/28 12:21:07;;;;;;;5.40;0.95;;;16.80;43.20;;;;;;5073124;28;20105;-62
2021/04/28 12:23:35;;;;;;;8.52;1.23;;;16.70;43.00;;;;;;5089007;28;20081;-62
2021/04/28 12:26:07;;;;;;;4.85;1.05;;;16.80;43.00;;;;;;5089836;28;20075;-62
2021/04/28 12:28:49;;;;;;;6.22;0.90;;;16.80;42.80;;;;;;5093727;28;20520;-62
2021/04/28 12:31:17;;;;;;;3.47;0.90;;;16.80;42.80;;;;;;5088192;28;20096;-61
2021/04/28 12:33:44;;;;;;;6.38;1.20;;;16.70;43.00;;;;;;5095094;28;20071;-62
2021/04/28 12:36:10;;;;;;;;;;;16.70;43.00;;;;;;5093837;28;20086;-62
2021/04/28 12:38:40;;;;;;;6.78;1.13;;;16.70;43.00;;;;;;5091069;28;20370;-61
2021/04/28 12:41:07;;;;;;;12.52;1.60;;;16.80;43.30;;;;;;5095726;28;20145;-60
2021/04/28 12:43:39;;;;;;;10.07;1.10;;;16.80;43.40;;;;;;5094716;28;20072;-61
2021/04/28 12:46:07;;;;;;;10.63;1.45;;;16.70;43.60;;;;;;5091058;28;20122;-61
2021/04/28 12:48:58;;;;;;;6.72;1.33;;;16.70;43.80;;;;;;5089455;28;20073;-61
2021/04/28 12:51:24;;;;;;;3.88;1.08;;;16.80;44.00;;;;;;5093173;28;20433;-62
2021/04/28 12:53:50;;;;;;;;;;;16.70;44.10;;;;;;5075479;28;20155;-61
2021/04/28 12:56:17;;;;;;;9.68;1.13;;;16.70;44.30;;;;;;5095296;28;20017;-62
2021/04/28 12:58:49;;;;;;;6.10;1.30;;;16.60;44.70;;;;;;5096106;28;20072;-62